Time;durP1;ratioP1;P1;durP2;ratioP2;P2;SDS_P1;SDS_P2;PMS_P1;PMS_P2;Temp;Humidity;BMP_temperature;BMP_pressure;BME280_temperature;BME280_humidity;BME280_pressure;Samples;Min_cycle;Max_cycle;Signal;HPM_P1;HPM_P2
2023/03/07 00:01:31;;;;;;;8.55;4.25;;;;;;;3.86;100.00;99888.59;5013252;28;20029;-96
2023/03/07 00:03:57;;;;;;;6.45;3.45;;;;;;;3.86;100.00;99898.91;5016208;28;20084;-96
2023/03/07 00:06:24;;;;;;;6.05;3.05;;;;;;;3.85;100.00;99891.97;5014777;28;20026;-96
2023/03/07 00:08:54;;;;;;;5.18;2.47;;;;;;;3.79;100.00;99884.91;5013881;28;20120;-95
2023/03/07 00:11:32;;;;;;;6.38;2.40;;;;;;;3.77;100.00;99885.69;5014865;28;20018;-96
2023/03/07 00:14:00;;;;;;;3.83;1.95;;;;;;;3.75;100.00;99889.91;5012735;28;20022;-95
2023/03/07 00:16:29;;;;;;;4.97;2.15;;;;;;;3.70;100.00;99882.03;5014354;28;20046;-95
2023/03/07 00:18:59;;;;;;;4.95;2.35;;;;;;;3.68;100.00;99890.50;5010074;28;20068;-95
2023/03/07 00:21:30;;;;;;;3.67;1.70;;;;;;;3.63;100.00;99890.34;5018621;28;20030;-94
2023/03/07 00:23:59;;;;;;;3.65;1.48;;;;;;;3.56;100.00;99881.50;5032949;28;20096;-94
2023/03/07 00:26:27;;;;;;;2.83;1.30;;;;;;;3.52;100.00;99884.81;5027105;28;20049;-94
2023/03/07 00:28:57;;;;;;;4.95;1.30;;;;;;;3.49;100.00;99877.00;5013831;28;20029;-93
2023/03/07 00:31:23;;;;;;;2.95;1.35;;;;;;;3.45;100.00;99870.84;5015047;28;20025;-94
2023/03/07 00:33:49;;;;;;;5.38;1.90;;;;;;;3.46;100.00;99869.13;5008212;28;20109;-95
2023/03/07 00:36:19;;;;;;;3.38;1.35;;;;;;;3.45;100.00;99876.00;5013232;28;20045;-95
2023/03/07 00:38:58;;;;;;;2.65;1.20;;;;;;;3.41;100.00;99870.69;5007696;28;20038;-95
2023/03/07 00:41:26;;;;;;;3.50;1.20;;;;;;;3.40;100.00;99871.50;5028252;28;20029;-95
2023/03/07 00:44:00;;;;;;;2.88;1.15;;;;;;;3.38;100.00;99865.41;5009614;28;20472;-95
2023/03/07 00:46:26;;;;;;;3.20;1.17;;;;;;;3.38;100.00;99871.44;5009092;28;20030;-95
2023/03/07 00:48:53;;;;;;;2.47;1.20;;;;;;;3.42;100.00;99869.88;5010450;28;20057;-96
2023/03/07 00:51:20;;;;;;;3.92;1.35;;;;;;;3.41;100.00;99862.94;5006926;28;20148;-95
2023/03/07 00:53:46;;;;;;;4.25;1.50;;;;;;;3.42;100.00;99862.13;5009500;28;20030;-95
2023/03/07 00:56:19;;;;;;;3.15;1.00;;;;;;;3.43;100.00;99866.44;5006871;28;20033;-95
2023/03/07 00:58:51;;;;;;;2.33;0.90;;;;;;;3.41;100.00;99860.38;5008096;28;20026;-95
2023/03/07 01:01:27;;;;;;;2.50;1.10;;;;;;;3.43;100.00;99863.88;5014414;28;20399;-96
2023/03/07 01:03:52;;;;;;;2.92;1.10;;;;;;;3.43;100.00;99858.72;5005768;28;20026;-94
2023/03/07 01:06:20;;;;;;;2.70;1.08;;;;;;;3.45;100.00;99855.38;5011875;28;20017;-96
2023/03/07 01:08:45;;;;;;;3.85;1.30;;;;;;;3.42;100.00;99851.84;5011711;28;20026;-95
2023/03/07 01:11:12;;;;;;;3.53;1.30;;;;;;;3.44;100.00;99850.19;5013391;28;20037;-94
2023/03/07 01:13:40;;;;;;;3.15;1.35;;;;;;;3.43;100.00;99844.16;5010311;28;20493;-95
2023/03/07 01:16:21;;;;;;;4.30;1.80;;;;;;;3.45;100.00;99849.38;5010027;28;21251;-95
2023/03/07 01:19:05;;;;;;;4.03;1.70;;;;;;;3.46;100.00;99843.38;5009676;28;20297;-94
2023/03/07 01:21:39;;;;;;;4.68;1.83;;;;;;;3.45;100.00;99839.06;5008412;28;20112;-95
2023/03/07 01:24:10;;;;;;;4.28;1.90;;;;;;;3.46;100.00;99845.94;5008494;28;20022;-95
2023/03/07 01:26:39;;;;;;;5.38;2.10;;;;;;;3.47;100.00;99837.41;5008988;28;20030;-95
2023/03/07 01:29:17;;;;;;;4.40;2.00;;;;;;;3.46;100.00;99835.66;5009016;28;20141;-95
2023/03/07 01:31:42;;;;;;;4.32;2.15;;;;;;;3.50;100.00;99839.22;5009121;28;20036;-95
2023/03/07 01:34:07;;;;;;;4.70;2.38;;;;;;;3.47;100.00;99830.56;5011148;28;20021;-95
2023/03/07 01:36:35;;;;;;;5.32;2.03;;;;;;;3.48;100.00;99829.75;5014831;28;20018;-95
2023/03/07 01:39:05;;;;;;;5.10;2.70;;;;;;;3.51;100.00;99833.25;5010175;28;20083;-95
2023/03/07 01:41:35;;;;;;;5.25;2.70;;;;;;;3.52;100.00;99824.69;5009915;28;20025;-95
2023/03/07 01:44:14;;;;;;;6.07;2.85;;;;;;;3.52;100.00;99817.88;5006875;28;20046;-94
2023/03/07 01:47:12;;;;;;;6.57;3.13;;;;;;;3.53;100.00;99821.31;5010712;28;20042;-96
2023/03/07 01:49:44;;;;;;;5.85;3.25;;;;;;;3.55;100.00;99811.91;5022799;28;20034;-96
2023/03/07 01:52:29;;;;;;;6.60;3.30;;;;;;;3.56;100.00;99823.97;5009806;28;20048;-96
2023/03/07 01:55:02;;;;;;;6.75;3.28;;;;;;;3.56;100.00;99814.53;5011713;28;20083;-95
2023/03/07 01:57:34;;;;;;;6.75;3.55;;;;;;;3.57;100.00;99810.28;5007585;28;20030;-94
2023/03/07 02:00:08;;;;;;;6.57;3.60;;;;;;;3.58;100.00;99807.78;5008666;28;20495;-95
2023/03/07 02:02:36;;;;;;;6.78;3.70;;;;;;;3.59;100.00;99809.53;5008482;28;20124;-95
2023/03/07 02:05:22;;;;;;;8.18;3.92;;;;;;;3.60;100.00;99798.38;5007483;28;20045;-95
2023/03/07 02:07:52;;;;;;;7.88;4.15;;;;;;;3.57;100.00;99798.28;5008573;28;20030;-95
2023/03/07 02:10:27;;;;;;;7.80;3.80;;;;;;;3.58;100.00;99805.19;5007900;28;20419;-95
2023/03/07 02:12:53;;;;;;;7.72;4.38;;;;;;;3.60;100.00;99797.53;5008602;28;20034;-95
2023/03/07 02:15:24;;;;;;;8.52;4.55;;;;;;;3.59;100.00;99791.50;5005874;28;20022;-95
2023/03/07 02:18:02;;;;;;;7.13;3.97;;;;;;;3.59;100.00;99788.94;5009874;28;20038;-95
2023/03/07 02:20:52;;;;;;;7.72;3.95;;;;;;;3.60;100.00;99794.94;5008191;28;20022;-95
2023/03/07 02:23:41;;;;;;;7.78;4.03;;;;;;;3.58;100.00;99789.75;5008524;28;20069;-96
2023/03/07 02:26:23;;;;;;;7.80;4.05;;;;;;;3.57;100.00;99792.25;5023059;28;20038;-96
2023/03/07 02:28:48;;;;;;;8.73;4.28;;;;;;;3.55;100.00;99787.06;5005826;28;20029;-96
2023/03/07 02:31:14;;;;;;;9.10;4.00;;;;;;;3.54;100.00;99781.84;5009931;28;20082;-96
2023/03/07 02:33:39;;;;;;;9.18;3.95;;;;;;;3.54;100.00;99782.72;5011976;28;20085;-96
2023/03/07 02:36:12;;;;;;;6.97;3.63;;;;;;;3.54;100.00;99774.13;5012935;28;20775;-96
2023/03/07 02:38:44;;;;;;;8.07;3.70;;;;;;;3.53;100.00;99772.38;5011384;28;20504;-96
2023/03/07 02:41:14;;;;;;;7.32;3.33;;;;;;;3.53;100.00;99768.09;5009094;28;20022;-95
2023/03/07 02:43:39;;;;;;;6.90;3.33;;;;;;;3.56;100.00;99773.34;5011185;28;20038;-95
2023/03/07 02:46:05;;;;;;;10.00;3.78;;;;;;;3.53;100.00;99773.25;5011658;28;20045;-95
2023/03/07 02:48:31;;;;;;;7.05;3.38;;;;;;;3.53;100.00;99773.25;5016934;28;20033;-96
2023/03/07 02:51:04;;;;;;;6.70;3.03;;;;;;;3.53;100.00;99772.38;5011888;28;20061;-96
2023/03/07 02:53:42;;;;;;;7.53;3.33;;;;;;;3.51;100.00;99769.75;5011927;28;20022;-96
2023/03/07 02:56:13;;;;;;;8.85;3.70;;;;;;;3.52;100.00;99766.34;5012081;28;20096;-96
2023/03/07 02:58:45;;;;;;;7.22;3.45;;;;;;;3.48;100.00;99760.22;5017266;28;20021;-95
2023/03/07 03:01:10;;;;;;;8.63;3.85;;;;;;;3.51;100.00;99763.72;5010235;28;20057;-96
2023/03/07 03:03:36;;;;;;;8.07;3.58;;;;;;;3.47;100.00;99765.31;5006821;28;20030;-95
2023/03/07 03:06:01;;;;;;;7.72;3.55;;;;;;;3.46;100.00;99761.88;5015755;28;20029;-96
2023/03/07 03:08:27;;;;;;;7.10;3.65;;;;;;;3.46;100.00;99769.59;5011774;28;20395;-95
2023/03/07 03:10:55;;;;;;;8.40;4.15;;;;;;;3.43;100.00;99766.03;5014869;28;20357;-95
2023/03/07 03:13:24;;;;;;;8.43;3.55;;;;;;;3.44;100.00;99767.78;5014711;28;20021;-96
2023/03/07 03:15:57;;;;;;;6.60;3.60;;;;;;;3.44;100.00;99771.22;5013395;28;20152;-96
2023/03/07 03:18:31;;;;;;;8.05;3.80;;;;;;;3.41;100.00;99765.97;5020492;28;20088;-96
2023/03/07 03:20:57;;;;;;;7.70;3.75;;;;;;;3.42;100.00;99761.72;5015633;28;20478;-96
2023/03/07 03:23:32;;;;;;;7.88;3.80;;;;;;;3.39;100.00;99753.84;5011868;28;20025;-96
2023/03/07 03:26:06;;;;;;;7.00;3.05;;;;;;;3.40;100.00;99755.63;5013496;28;20420;-96
2023/03/07 03:28:33;;;;;;;8.02;3.55;;;;;;;3.39;100.00;99753.84;5014459;28;20460;-95
2023/03/07 03:31:05;;;;;;;8.52;3.80;;;;;;;3.40;100.00;99760.75;5018200;28;20038;-95
2023/03/07 03:33:38;;;;;;;8.23;3.88;;;;;;;3.39;100.00;99759.00;5019475;28;20018;-96
2023/03/07 03:36:15;;;;;;;9.90;3.83;;;;;;;3.38;100.00;99760.72;5017902;28;20113;-95
2023/03/07 03:38:41;;;;;;;9.15;3.78;;;;;;;3.39;100.00;99753.84;5014121;28;20049;-96
2023/03/07 03:41:10;;;;;;;8.15;3.97;;;;;;;3.38;100.00;99746.97;5015397;28;20044;-96
2023/03/07 03:43:36;;;;;;;8.60;4.15;;;;;;;3.39;100.00;99743.56;5010996;28;20064;-95
2023/03/07 03:46:02;;;;;;;8.73;4.13;;;;;;;3.39;100.00;99749.59;5009173;28;20017;-95
2023/03/07 03:48:31;;;;;;;8.50;4.07;;;;;;;3.40;100.00;99740.16;5014394;28;20022;-96
2023/03/07 03:51:05;;;;;;;9.48;4.45;;;;;;;3.41;100.00;99736.78;5008280;28;20026;-96
2023/03/07 03:53:33;;;;;;;7.60;3.78;;;;;;;3.41;100.00;99731.63;5010500;28;20054;-96
2023/03/07 03:56:11;;;;;;;7.72;4.10;;;;;;;3.36;100.00;99728.00;5008166;28;20042;-96
2023/03/07 03:58:42;;;;;;;8.52;4.20;;;;;;;3.33;100.00;99735.63;5006095;28;20732;-96
2023/03/07 04:01:11;;;;;;;6.38;2.80;;;;;;;3.32;100.00;99724.47;5014517;28;20064;-96
2023/03/07 04:03:46;;;;;;;7.75;3.60;;;;;;;3.30;100.00;99716.69;5013280;28;20034;-95
2023/03/07 04:06:19;;;;;;;7.50;3.17;;;;;;;3.27;100.00;99713.13;5013654;28;20099;-96
2023/03/07 04:08:45;;;;;;;7.80;3.47;;;;;;;3.27;100.00;99714.00;5011694;28;20026;-96
2023/03/07 04:11:11;;;;;;;9.52;4.93;;;;;;;3.29;100.00;99703.78;5010544;28;20028;-96
2023/03/07 04:13:39;;;;;;;7.68;3.75;;;;;;;3.29;100.00;99704.63;5015097;28;20026;-96
2023/03/07 04:16:08;;;;;;;8.35;3.75;;;;;;;3.30;100.00;99696.09;5011407;28;20025;-96
2023/03/07 04:18:34;;;;;;;8.25;3.67;;;;;;;3.31;100.00;99694.38;5013597;28;20399;-96
2023/03/07 04:21:04;;;;;;;8.77;4.07;;;;;;;3.33;100.00;99691.88;5009824;28;20542;-96
2023/03/07 04:23:30;;;;;;;9.57;4.13;;;;;;;3.33;100.00;99691.88;5011250;28;20040;-96
2023/03/07 04:26:00;;;;;;;8.52;4.00;;;;;;;3.33;100.00;99686.72;5012404;28;20048;-96
2023/03/07 04:28:27;;;;;;;;;;;;;;;3.38;100.00;99690.34;5012142;28;20049;-96
2023/03/07 04:30:55;;;;;;;9.15;4.28;;;;;;;3.34;100.00;99683.31;5030351;28;20024;-96
2023/03/07 04:33:21;;;;;;;8.10;3.92;;;;;;;3.30;100.00;99678.06;5012675;28;20127;-96
2023/03/07 04:35:46;;;;;;;9.30;4.00;;;;;;;3.29;100.00;99681.47;5012734;28;20030;-96
2023/03/07 04:38:13;;;;;;;8.65;3.80;;;;;;;3.29;100.00;99678.88;5012054;28;20072;-95
2023/03/07 04:40:42;;;;;;;9.27;3.97;;;;;;;3.29;100.00;99678.03;5008205;28;20026;-95
2023/03/07 04:43:10;;;;;;;7.37;3.30;;;;;;;3.30;100.00;99678.06;5013509;28;20018;-95
2023/03/07 04:45:39;;;;;;;9.60;3.80;;;;;;;3.31;100.00;99671.22;5010644;28;20075;-95
2023/03/07 04:48:04;;;;;;;7.78;3.17;;;;;;;3.31;100.00;99673.78;5029086;28;20050;-95
2023/03/07 04:50:30;;;;;;;8.75;3.80;;;;;;;3.29;100.00;99666.00;5011683;28;20018;-95
2023/03/07 04:52:58;;;;;;;8.23;3.70;;;;;;;3.29;100.00;99666.00;5013058;28;20102;-95
2023/03/07 04:55:23;;;;;;;10.07;3.58;;;;;;;3.29;100.00;99666.00;5008536;28;20030;-95
2023/03/07 04:57:50;;;;;;;9.13;3.78;;;;;;;3.29;100.00;99666.00;5007253;28;20387;-96
2023/03/07 05:00:19;;;;;;;10.07;3.70;;;;;;;3.32;100.00;99660.09;5006715;28;20021;-95
2023/03/07 05:02:47;;;;;;;9.10;3.83;;;;;;;3.30;100.00;99656.59;5010209;28;20026;-95
2023/03/07 05:05:13;;;;;;;7.93;3.33;;;;;;;3.30;100.00;99662.63;5007641;28;20295;-96
2023/03/07 05:07:38;;;;;;;11.18;4.47;;;;;;;3.28;100.00;99655.66;5007538;28;20101;-96
2023/03/07 05:10:08;;;;;;;10.27;4.10;;;;;;;3.29;100.00;99660.00;5010133;28;20036;-95
2023/03/07 05:12:36;;;;;;;;;;;;;;;3.33;100.00;99661.84;5009891;28;20030;-94
2023/03/07 05:15:01;;;;;;;8.60;3.88;;;;;;;3.29;100.00;99653.16;5001930;28;20275;-95
2023/03/07 05:17:31;;;;;;;9.68;4.05;;;;;;;3.26;100.00;99647.91;5009551;28;20448;-96
2023/03/07 05:19:57;;;;;;;11.93;4.60;;;;;;;3.25;100.00;99650.41;5008245;28;20030;-96
2023/03/07 05:22:22;;;;;;;12.63;4.85;;;;;;;3.22;100.00;99648.63;5010974;28;20022;-95
2023/03/07 05:24:53;;;;;;;9.68;4.63;;;;;;;3.21;100.00;99649.44;5011235;28;20033;-95
2023/03/07 05:27:21;;;;;;;12.10;4.70;;;;;;;3.19;100.00;99645.94;5010358;28;20026;-95
2023/03/07 05:29:58;;;;;;;11.77;4.53;;;;;;;3.17;100.00;99634.69;5010796;28;20039;-95
2023/03/07 05:32:24;;;;;;;11.15;4.25;;;;;;;3.18;100.00;99631.31;5010711;28;20017;-95
2023/03/07 05:34:58;;;;;;;9.82;4.15;;;;;;;3.17;100.00;99636.41;5010335;28;20029;-94
2023/03/07 05:37:26;;;;;;;10.45;4.63;;;;;;;3.16;100.00;99630.41;5002951;28;20117;-95
2023/03/07 05:39:52;;;;;;;10.88;4.43;;;;;;;3.16;100.00;99632.97;5013839;28;20072;-96
2023/03/07 05:42:17;;;;;;;10.55;4.47;;;;;;;3.16;100.00;99632.97;5012181;28;20435;-95
2023/03/07 05:44:45;;;;;;;8.32;3.90;;;;;;;3.16;100.00;99632.97;5013336;28;20375;-95
2023/03/07 05:47:11;;;;;;;10.93;5.15;;;;;;;3.16;100.00;99630.41;5007575;28;20037;-96
2023/03/07 05:49:39;;;;;;;7.28;3.97;;;;;;;3.17;100.00;99638.97;5010246;28;20026;-95
2023/03/07 05:52:05;;;;;;;11.30;4.57;;;;;;;3.18;100.00;99630.44;5006507;28;20079;-95
2023/03/07 05:54:36;;;;;;;9.82;4.53;;;;;;;3.18;100.00;99639.03;5027414;28;20033;-95
2023/03/07 05:57:02;;;;;;;9.93;4.05;;;;;;;3.20;100.00;99626.22;5012560;28;20027;-95
2023/03/07 05:59:30;;;;;;;9.30;4.13;;;;;;;3.17;100.00;99624.41;5012736;28;20116;-96
2023/03/07 06:01:58;;;;;;;10.52;4.20;;;;;;;3.18;100.00;99626.16;5013466;28;20025;-96
2023/03/07 06:04:23;;;;;;;11.13;3.67;;;;;;;3.17;100.00;99623.53;5025660;28;20474;-96
2023/03/07 06:06:56;;;;;;;10.95;4.63;;;;;;;3.17;100.00;99619.25;5009336;28;20034;-95
2023/03/07 06:09:24;;;;;;;10.63;4.30;;;;;;;3.16;100.00;99620.09;5009912;28;20022;-96
2023/03/07 06:11:52;;;;;;;9.00;4.30;;;;;;;3.18;100.00;99635.59;5012440;28;20037;-95
2023/03/07 06:14:20;;;;;;;10.60;5.70;;;;;;;3.16;100.00;99624.34;5028456;28;20028;-96
2023/03/07 06:16:49;;;;;;;11.25;4.43;;;;;;;3.15;100.00;99632.91;5017900;28;20017;-95
2023/03/07 06:19:18;;;;;;;9.50;4.35;;;;;;;3.14;100.00;99634.59;5017803;28;20028;-95
2023/03/07 06:21:46;;;;;;;9.02;3.50;;;;;;;3.14;100.00;99624.31;5023329;28;20025;-96
2023/03/07 06:24:11;;;;;;;5.53;2.83;;;;;;;3.09;100.00;99625.88;5022124;28;20034;-96
2023/03/07 06:26:39;;;;;;;6.97;3.08;;;;;;;3.01;100.00;99628.16;5024620;28;20128;-96
2023/03/07 06:29:08;;;;;;;7.20;3.40;;;;;;;2.93;100.00;99638.19;5026512;28;20435;-96
2023/03/07 06:31:33;;;;;;;6.38;2.90;;;;;;;2.84;100.00;99643.03;5024637;28;20029;-96
2023/03/07 06:34:02;;;;;;;8.20;3.67;;;;;;;2.76;100.00;99652.16;5032099;28;20017;-96
2023/03/07 06:36:34;;;;;;;9.77;3.35;;;;;;;2.72;100.00;99647.72;5034323;28;20026;-95
2023/03/07 06:39:02;;;;;;;7.35;3.28;;;;;;;2.63;100.00;99648.28;5034690;28;20025;-95
2023/03/07 06:41:47;;;;;;;7.60;3.90;;;;;;;2.55;100.00;99648.00;5035726;28;20033;-95
2023/03/07 06:47:18;;;;;;;7.75;3.72;;;;;;;2.48;100.00;99640.00;5051288;28;20056;-96
2023/03/07 06:50:01;;;;;;;7.68;3.35;;;;;;;2.46;100.00;99632.22;5034206;28;20037;-96
2023/03/07 06:52:30;;;;;;;7.18;3.22;;;;;;;2.43;100.00;99634.69;5029292;28;20037;-96
2023/03/07 06:54:59;;;;;;;8.55;3.20;;;;;;;2.39;100.00;99633.72;5037482;28;20025;-96
2023/03/07 06:57:28;;;;;;;8.05;3.75;;;;;;;2.38;100.00;99643.94;5031693;28;20026;-96
2023/03/07 06:59:56;;;;;;;7.57;3.70;;;;;;;2.36;100.00;99650.72;5028752;28;20025;-96
2023/03/07 07:02:30;;;;;;;7.45;3.38;;;;;;;2.37;100.00;99657.59;5029568;28;20021;-96
2023/03/07 07:05:01;;;;;;;8.85;3.80;;;;;;;2.33;100.00;99648.03;5035621;28;20035;-96
2023/03/07 07:07:28;;;;;;;10.05;4.30;;;;;;;2.30;100.00;99660.78;5032126;28;20021;-96
2023/03/07 07:09:55;;;;;;;8.20;3.65;;;;;;;2.25;100.00;99656.31;5037492;28;20088;-96
2023/03/07 07:12:36;;;;;;;9.07;4.20;;;;;;;2.19;100.00;99656.09;5036526;28;20029;-96
2023/03/07 07:15:08;;;;;;;8.63;4.20;;;;;;;2.13;100.00;99655.88;5037771;28;20076;-96
2023/03/07 07:17:39;;;;;;;9.23;4.35;;;;;;;2.11;100.00;99657.50;5027352;28;20041;-96
2023/03/07 07:20:05;;;;;;;9.10;4.00;;;;;;;2.08;100.00;99647.97;5015260;28;20041;-96
2023/03/07 07:22:34;;;;;;;7.15;3.50;;;;;;;2.05;100.00;99653.00;5032519;28;20029;-95
2023/03/07 07:25:02;;;;;;;8.88;4.32;;;;;;;2.05;100.00;99644.44;5015093;28;20044;-96
2023/03/07 07:27:31;;;;;;;7.15;3.75;;;;;;;2.01;100.00;99642.56;5014648;28;20026;-96
2023/03/07 07:29:58;;;;;;;7.55;3.78;;;;;;;1.99;100.00;99646.75;5013963;28;20033;-96
2023/03/07 07:32:27;;;;;;;7.78;3.70;;;;;;;1.99;100.00;99657.91;5027174;28;20030;-95
2023/03/07 07:34:55;;;;;;;8.52;4.00;;;;;;;1.99;100.00;99657.03;5013225;28;20018;-95
2023/03/07 07:37:20;;;;;;;8.23;4.03;;;;;;;1.94;100.00;99667.16;5013242;28;20521;-96
2023/03/07 07:39:50;;;;;;;7.53;3.70;;;;;;;1.89;100.00;99673.78;5013034;28;20046;-96
2023/03/07 07:42:15;;;;;;;10.63;5.93;;;;;;;1.84;100.00;99681.31;5013764;28;20026;-96
2023/03/07 07:44:45;;;;;;;7.75;3.70;;;;;;;1.83;100.00;99694.97;5013759;28;20028;-95
2023/03/07 07:47:11;;;;;;;8.75;4.10;;;;;;;1.78;100.00;99699.03;5014689;28;20038;-96
2023/03/07 07:49:39;;;;;;;9.57;4.28;;;;;;;1.76;100.00;99710.06;5013652;28;20036;-96
2023/03/07 07:52:04;;;;;;;9.02;4.50;;;;;;;1.77;100.00;99714.38;5014938;28;20113;-96
2023/03/07 07:54:33;;;;;;;9.45;4.20;;;;;;;1.76;100.00;99716.06;5015428;28;20041;-96
2023/03/07 07:56:59;;;;;;;10.37;4.80;;;;;;;1.76;100.00;99716.06;5009821;28;20031;-96
2023/03/07 07:59:33;;;;;;;9.05;4.40;;;;;;;1.76;100.00;99708.38;5013266;28;20639;-96
2023/03/07 08:02:02;;;;;;;9.48;4.25;;;;;;;1.76;100.00;99705.78;5006885;28;20022;-96
2023/03/07 08:04:28;;;;;;;9.18;3.92;;;;;;;1.78;100.00;99701.59;5008567;28;20377;-96
2023/03/07 08:07:04;;;;;;;8.30;4.18;;;;;;;1.80;100.00;99707.69;5011959;28;20026;-95
2023/03/07 08:09:34;;;;;;;10.45;4.55;;;;;;;1.83;100.00;99704.38;5009376;28;20034;-96
2023/03/07 08:11:59;;;;;;;9.55;4.55;;;;;;;1.84;100.00;99707.00;5033567;23;20030;-68
2023/03/07 08:14:25;;;;;;;10.38;4.28;;;;;;;1.86;100.00;99712.19;5034787;28;20040;-68
2023/03/07 08:16:50;;;;;;;9.38;4.22;;;;;;;1.86;100.00;99718.19;5036499;28;20024;-67
2023/03/07 08:19:15;;;;;;;9.85;4.75;;;;;;;1.88;100.00;99707.97;5036526;28;20032;-68
2023/03/07 08:21:40;;;;;;;9.30;4.53;;;;;;;1.87;100.00;99712.25;5028171;28;20048;-68
2023/03/07 08:24:06;;;;;;;10.60;4.60;;;;;;;1.90;100.00;99721.78;5036101;28;20395;-68
2023/03/07 08:26:31;;;;;;;10.43;5.03;;;;;;;1.91;100.00;99729.53;5035884;28;20017;-68
2023/03/07 08:28:57;;;;;;;10.68;4.80;;;;;;;1.94;100.00;99727.91;5036122;28;20049;-67
2023/03/07 08:31:23;;;;;;;10.07;4.60;;;;;;;1.95;100.00;99734.81;5036896;28;20017;-67
2023/03/07 08:33:49;;;;;;;11.35;5.20;;;;;;;1.97;100.00;99738.28;5035567;28;20097;-67
2023/03/07 08:36:15;;;;;;;10.90;4.70;;;;;;;1.99;100.00;99749.53;5134938;22;20064;-67
2023/03/07 08:38:40;;;;;;;12.30;7.30;;;;;;;1.97;100.00;99728.00;5016184;28;20029;-67
2023/03/07 08:41:07;;;;;;;13.75;7.85;;;;;;;1.91;100.00;99744.97;5008850;28;20611;-68
2023/03/07 08:43:35;;;;;;;15.20;8.27;;;;;;;1.87;100.00;99717.38;5015363;28;20477;-68
2023/03/07 08:46:01;;;;;;;15.95;8.07;;;;;;;1.87;100.00;99745.63;5015828;28;20029;-68
2023/03/07 08:48:27;;;;;;;14.43;7.88;;;;;;;1.90;100.00;99727.78;5015536;28;20315;-68
2023/03/07 08:50:52;;;;;;;15.48;8.43;;;;;;;1.92;100.00;99732.97;5014506;28;20035;-68
2023/03/07 08:53:18;;;;;;;15.73;8.38;;;;;;;1.96;100.00;99727.16;5014927;28;20021;-68
2023/03/07 08:55:43;;;;;;;15.77;8.65;;;;;;;2.00;100.00;99733.28;5015553;28;20113;-68
2023/03/07 08:58:09;;;;;;;15.02;8.63;;;;;;;2.02;100.00;99731.66;5009705;28;20481;-68
2023/03/07 09:00:35;;;;;;;18.20;9.52;;;;;;;2.05;100.00;99729.22;5013693;28;20079;-68
2023/03/07 09:03:01;;;;;;;18.58;9.80;;;;;;;2.08;100.00;99722.47;5015060;28;20146;-68
2023/03/07 09:05:27;;;;;;;17.83;9.77;;;;;;;2.14;100.00;99720.97;5015738;28;20599;-68
2023/03/07 09:07:53;;;;;;;20.10;10.48;;;;;;;2.18;100.00;99728.00;5015504;28;20050;-68
2023/03/07 09:10:19;;;;;;;19.33;9.50;;;;;;;2.21;100.00;99731.56;5014719;28;20024;-68
2023/03/07 09:12:45;;;;;;;17.33;9.75;;;;;;;2.25;100.00;99722.28;5015865;28;20022;-68
2023/03/07 09:15:11;;;;;;;17.17;9.35;;;;;;;2.26;100.00;99731.75;5006554;28;20036;-68
2023/03/07 09:17:36;;;;;;;16.25;9.20;;;;;;;2.28;100.00;99729.25;5013726;28;20025;-68
2023/03/07 09:20:03;;;;;;;17.58;9.63;;;;;;;2.30;100.00;99743.03;5014710;28;20057;-68
2023/03/07 09:22:28;;;;;;;18.27;9.30;;;;;;;2.34;100.00;99737.19;5011285;28;20036;-68
2023/03/07 09:24:53;;;;;;;18.17;9.68;;;;;;;2.34;100.00;99734.63;5014418;28;20117;-68
2023/03/07 09:27:19;;;;;;;16.80;9.45;;;;;;;2.34;100.00;99743.19;5014571;28;20029;-68
2023/03/07 09:29:46;;;;;;;17.05;9.48;;;;;;;2.36;100.00;99745.81;5014427;28;20511;-68
2023/03/07 09:32:11;;;;;;;17.38;9.38;;;;;;;2.36;100.00;99751.84;5015160;28;20034;-68
2023/03/07 09:34:36;;;;;;;16.83;9.43;;;;;;;2.35;100.00;99750.09;5014573;28;20030;-68
2023/03/07 09:37:02;;;;;;;17.10;9.75;;;;;;;2.37;100.00;99755.28;5013710;28;20133;-68
2023/03/07 09:39:27;;;;;;;16.23;8.88;;;;;;;2.37;100.00;99751.00;4995407;28;20036;-68
2023/03/07 09:42:15;;;;;;;16.55;8.85;;;;;;;2.35;100.00;99749.22;5014034;28;20475;-68
2023/03/07 09:45:02;;;;;;;13.75;7.22;;;;;;;2.29;100.00;99746.41;5015256;28;20033;-68
2023/03/07 09:48:02;;;;;;;11.95;7.05;;;;;;;2.24;100.00;99744.50;5015214;28;20022;-68
2023/03/07 09:50:39;;;;;;;12.40;6.32;;;;;;;2.26;100.00;99749.75;5013619;28;20072;-68
2023/03/07 09:53:05;;;;;;;11.40;6.07;;;;;;;2.22;100.00;99751.31;5014194;28;20533;-68
2023/03/07 09:55:31;;;;;;;9.52;5.40;;;;;;;2.18;100.00;99744.28;5014289;28;20042;-69
2023/03/07 10:00:44;;;;;;;9.60;5.00;;;;;;;2.22;100.00;99738.47;5186900;22;20420;-66
2023/03/07 10:03:40;;;;;;;8.90;4.63;;;;;;;2.15;100.00;99743.31;5033520;28;20022;-65
2023/03/07 10:06:26;;;;;;;10.70;5.30;;;;;;;2.08;100.00;99742.16;5035230;28;20036;-66
2023/03/07 10:08:54;;;;;;;10.50;5.30;;;;;;;2.09;100.00;99742.22;5034307;28;20029;-65
2023/03/07 10:11:37;;;;;;;10.25;4.95;;;;;;;2.14;100.00;99736.41;5033282;28;20037;-66
2023/03/07 10:14:12;;;;;;;8.55;4.68;;;;;;;2.20;100.00;99740.09;5034854;28;20507;-66
2023/03/07 10:16:40;;;;;;;9.63;4.70;;;;;;;2.25;100.00;99740.28;5033734;28;20059;-66
2023/03/07 10:19:21;;;;;;;8.02;4.22;;;;;;;2.17;100.00;99737.41;5034974;28;20087;-66
2023/03/07 10:21:59;;;;;;;7.95;4.10;;;;;;;2.16;100.00;99737.31;5034622;28;20032;-66
2023/03/07 10:25:01;;;;;;;8.17;4.00;;;;;;;2.20;100.00;99742.66;5033325;28;20020;-66
2023/03/07 10:27:29;;;;;;;8.00;4.30;;;;;;;2.25;100.00;99742.84;5015868;28;20037;-66
2023/03/07 10:29:58;;;;;;;9.30;4.75;;;;;;;2.31;100.00;99750.78;5034647;28;20090;-66
2023/03/07 10:32:46;;;;;;;12.13;5.63;;;;;;;2.34;100.00;99750.03;5016861;28;20029;-65
2023/03/07 10:35:12;;;;;;;10.38;5.03;;;;;;;2.36;100.00;99753.53;5033145;28;20555;-66
2023/03/07 10:37:55;;;;;;;10.90;5.35;;;;;;;2.34;100.00;99747.47;5034187;28;20028;-66
2023/03/07 10:40:32;;;;;;;9.60;4.85;;;;;;;2.35;100.00;99744.94;5034158;28;20033;-66
2023/03/07 10:42:58;;;;;;;9.82;5.25;;;;;;;2.40;100.00;99745.13;5034126;28;20461;-65
2023/03/07 10:45:28;;;;;;;13.52;6.95;;;;;;;2.42;100.00;99739.22;5033746;28;20055;-65
2023/03/07 10:47:53;;;;;;;11.50;5.82;;;;;;;2.43;100.00;99740.09;5034446;28;20105;-65
2023/03/07 10:50:28;;;;;;;12.55;5.70;;;;;;;2.48;100.00;99742.84;5034471;28;20701;-65
2023/03/07 10:52:57;;;;;;;11.30;5.75;;;;;;;2.48;100.00;99746.31;5034295;28;20017;-65
2023/03/07 10:55:36;;;;;;;10.90;5.60;;;;;;;2.46;100.00;99750.50;5033171;28;20136;-65
2023/03/07 10:58:15;;;;;;;;;;;;;;;2.52;100.00;99748.19;5034588;28;20033;-65
2023/03/07 11:00:44;;;;;;;;;;;;;;;2.52;100.00;99747.28;5020030;28;20016;-66
2023/03/07 11:03:30;;;;;;;10.52;4.72;;;;;;;2.44;100.00;99757.28;5017684;28;19921;-66
2023/03/07 11:05:56;;;;;;;8.68;4.00;;;;;;;2.39;100.00;99746.81;5020025;28;20034;-66
2023/03/07 11:08:32;;;;;;;10.18;5.13;;;;;;;2.42;100.00;99749.50;5018945;28;20031;-66
2023/03/07 11:11:01;;;;;;;8.60;4.28;;;;;;;2.48;100.00;99751.44;5019084;28;20452;-66
2023/03/07 11:13:28;;;;;;;9.65;4.70;;;;;;;2.53;100.00;99751.63;5020614;28;20014;-66
2023/03/07 11:16:28;;;;;;;9.65;4.38;;;;;;;2.58;100.00;99750.97;5020011;28;20021;-66
2023/03/07 11:18:54;;;;;;;8.48;4.03;;;;;;;2.64;100.00;99746.91;5019019;28;20091;-66
2023/03/07 11:21:33;;;;;;;8.40;4.13;;;;;;;2.74;100.00;99756.72;5019480;28;20022;-66
2023/03/07 11:24:04;;;;;;;7.53;3.40;;;;;;;2.74;100.00;99747.28;5020528;28;20025;-65
2023/03/07 11:26:39;;;;;;;7.38;3.70;;;;;;;2.74;100.00;99751.56;5019504;28;20033;-66
2023/03/07 11:29:13;;;;;;;7.72;3.63;;;;;;;2.76;100.00;99760.19;5020124;28;20025;-65
2023/03/07 11:31:57;;;;;;;7.80;3.50;;;;;;;2.80;100.00;99749.22;5019546;28;20041;-66
2023/03/07 11:34:30;;;;;;;7.65;3.70;;;;;;;2.84;100.00;99745.94;5020277;28;20025;-65
2023/03/07 11:37:06;;;;;;;7.00;3.25;;;;;;;2.85;100.00;99750.25;5019870;28;20032;-66
2023/03/07 11:39:47;;;;;;;7.28;3.13;;;;;;;2.89;100.00;99757.25;5019504;28;20527;-67
2023/03/07 11:42:22;;;;;;;6.85;3.38;;;;;;;2.96;100.00;99751.50;5018899;28;20056;-68
2023/03/07 11:45:18;;;;;;;7.75;3.60;;;;;;;3.02;100.00;99750.00;5002177;28;20037;-67
2023/03/07 11:48:18;;;;;;;6.63;3.15;;;;;;;3.10;100.00;99744.31;5018915;28;20146;-67
2023/03/07 11:50:58;;;;;;;6.28;3.03;;;;;;;3.12;100.00;99745.22;5019479;28;20100;-67
2023/03/07 11:53:55;;;;;;;6.30;3.08;;;;;;;3.16;100.00;99740.19;5018274;28;20025;-67